createdAt,value
2023-01-22T00:01:29.555Z,8.23
2023-01-22T00:04:52.701Z,8.07
2023-01-22T00:08:13.976Z,8.83
2023-01-22T00:11:35.840Z,8.57
2023-01-22T00:14:57.661Z,6.90
2023-01-22T00:18:20.207Z,7.97
2023-01-22T00:21:43.113Z,6.90
2023-01-22T00:25:06.150Z,6.70
2023-01-22T00:28:28.011Z,6.33
2023-01-22T00:31:49.847Z,5.60
2023-01-22T00:35:11.710Z,4.97
2023-01-22T00:38:35.347Z,6.20
2023-01-22T00:41:57.209Z,6.43
2023-01-22T00:45:18.943Z,5.87
2023-01-22T00:48:40.867Z,5.77
2023-01-22T00:52:02.609Z,3.40
2023-01-22T00:55:25.698Z,5.10
2023-01-22T00:58:47.334Z,3.70
2023-01-22T01:02:09.046Z,5.27
2023-01-22T01:05:30.694Z,4.63
2023-01-22T01:08:52.348Z,4.83
2023-01-22T01:12:15.487Z,6.03
2023-01-22T01:15:38.218Z,5.43
2023-01-22T01:19:00.609Z,7.63
2023-01-22T01:22:21.982Z,4.53
2023-01-22T01:25:43.357Z,4.43
2023-01-22T01:29:08.062Z,5.27
2023-01-22T01:32:29.842Z,6.10
2023-01-22T01:36:00.133Z,5.40
2023-01-22T01:39:24.060Z,4.57
2023-01-22T01:42:47.369Z,4.90
2023-01-22T01:46:19.463Z,3.87
2023-01-22T01:49:48.205Z,3.63
2023-01-22T01:53:10.192Z,5.33
2023-01-22T01:56:36.471Z,5.77
2023-01-22T02:00:00.091Z,6.70
2023-01-22T02:03:23.392Z,5.50
2023-01-22T02:06:45.182Z,5.17
2023-01-22T02:10:07.529Z,6.33
2023-01-22T02:13:32.331Z,4.23
2023-01-22T02:17:01.788Z,5.67
2023-01-22T02:20:24.575Z,5.00
2023-01-22T02:23:47.788Z,4.67
2023-01-22T02:27:09.562Z,6.53
2023-01-22T02:30:31.413Z,4.80
2023-01-22T02:33:53.255Z,4.33
2023-01-22T02:37:15.163Z,5.63
2023-01-22T02:40:48.993Z,6.00
2023-01-22T02:44:13.110Z,4.30
2023-01-22T02:47:36.009Z,5.77
2023-01-22T02:50:57.769Z,4.67
2023-01-22T02:54:19.549Z,5.20
2023-01-22T02:57:42.358Z,5.60
2023-01-22T03:01:18.972Z,4.37
2023-01-22T03:04:41.658Z,3.63
2023-01-22T03:08:05.163Z,6.03
2023-01-22T03:11:29.422Z,5.23
2023-01-22T03:15:10.154Z,4.17
2023-01-22T03:18:50.489Z,4.93
2023-01-22T03:22:15.599Z,4.37
2023-01-22T03:25:37.462Z,7.07
2023-01-22T03:28:58.682Z,6.33
2023-01-22T03:32:22.921Z,5.13
2023-01-22T03:35:44.464Z,5.03
2023-01-22T03:39:11.320Z,6.37
2023-01-22T03:42:33.010Z,4.03
2023-01-22T03:45:54.660Z,4.83
2023-01-22T03:49:19.322Z,4.20
2023-01-22T03:52:47.319Z,3.93
2023-01-22T03:56:13.139Z,4.97
2023-01-22T03:59:35.083Z,4.57
2023-01-22T04:02:56.418Z,3.10
2023-01-22T04:06:25.057Z,4.03
2023-01-22T04:09:46.592Z,3.57
2023-01-22T04:13:08.394Z,4.67
2023-01-22T04:16:31.292Z,3.20
2023-01-22T04:20:21.915Z,3.93
2023-01-22T04:24:03.727Z,3.97
2023-01-22T04:27:26.517Z,3.27
2023-01-22T04:30:53.216Z,3.53
2023-01-22T04:34:53.041Z,4.53
2023-01-22T04:38:29.864Z,5.17
2023-01-22T04:41:52.782Z,3.70
2023-01-22T04:45:14.458Z,4.20
2023-01-22T04:48:36.431Z,4.40
2023-01-22T04:51:58.288Z,2.77
2023-01-22T04:55:21.956Z,5.20
2023-01-22T04:58:54.854Z,2.83
2023-01-22T05:02:16.911Z,3.03
2023-01-22T05:05:38.666Z,3.87
2023-01-22T05:09:00.161Z,3.63
2023-01-22T05:12:24.843Z,3.97
2023-01-22T05:15:49.457Z,3.30
2023-01-22T05:19:12.095Z,4.80
2023-01-22T05:22:33.949Z,3.20
2023-01-22T05:25:55.524Z,3.43
2023-01-22T05:29:29.795Z,4.33
2023-01-22T05:33:10.435Z,5.13
2023-01-22T05:36:33.299Z,4.17
2023-01-22T05:40:00.693Z,5.10
2023-01-22T05:43:23.593Z,4.73
2023-01-22T05:46:50.435Z,4.90
2023-01-22T05:50:28.591Z,5.23
2023-01-22T05:53:58.162Z,4.27
2023-01-22T05:57:22.964Z,4.87
2023-01-22T06:00:44.842Z,4.77
2023-01-22T06:04:07.722Z,4.70
2023-01-22T06:07:32.718Z,4.63
2023-01-22T06:11:01.038Z,5.13
2023-01-22T06:14:23.434Z,6.07
2023-01-22T06:17:45.233Z,5.37
2023-01-22T06:21:08.854Z,5.23
2023-01-22T06:24:32.023Z,4.83
2023-01-22T06:27:54.913Z,5.40
2023-01-22T06:31:17.725Z,5.30
2023-01-22T06:34:39.665Z,6.90
2023-01-22T06:38:01.197Z,6.37
2023-01-22T06:41:27.882Z,5.17
2023-01-22T06:44:53.971Z,6.37
2023-01-22T06:48:18.333Z,6.50
2023-01-22T06:51:40.687Z,6.57
2023-01-22T06:55:02.174Z,5.43
2023-01-22T06:58:25.727Z,6.90
2023-01-22T07:01:47.496Z,7.87
2023-01-22T07:05:10.036Z,5.97
2023-01-22T07:08:34.475Z,6.77
2023-01-22T07:11:57.425Z,8.57
2023-01-22T07:15:20.499Z,7.50
2023-01-22T07:18:42.218Z,7.23
2023-01-22T07:22:03.995Z,9.07
2023-01-22T07:25:27.149Z,7.53
2023-01-22T07:28:51.480Z,6.10
2023-01-22T07:32:14.391Z,5.90
2023-01-22T07:35:36.099Z,7.83
2023-01-22T07:38:57.744Z,7.50
2023-01-22T07:42:18.916Z,6.87
2023-01-22T07:45:40.609Z,8.63
2023-01-22T07:49:03.368Z,6.37
2023-01-22T07:52:25.237Z,7.27
2023-01-22T07:55:47.195Z,7.60
2023-01-22T07:59:08.971Z,6.13
2023-01-22T08:02:30.261Z,5.97
2023-01-22T08:05:53.548Z,6.07
2023-01-22T08:09:16.552Z,7.87
2023-01-22T08:12:41.351Z,5.53
2023-01-22T08:16:03.089Z,7.97
2023-01-22T08:19:24.761Z,7.40
2023-01-22T08:22:48.178Z,8.90
2023-01-22T08:26:10.291Z,6.60
2023-01-22T08:29:32.090Z,7.43
2023-01-22T08:32:55.168Z,6.87
2023-01-22T08:36:16.603Z,7.17
2023-01-22T08:39:39.210Z,7.90
2023-01-22T08:43:00.601Z,7.63
2023-01-22T08:46:21.981Z,7.40
2023-01-22T08:49:43.803Z,7.23
2023-01-22T08:53:05.652Z,6.17
2023-01-22T08:56:28.933Z,5.83
2023-01-22T09:00:00.709Z,6.33
2023-01-22T09:03:23.163Z,6.43
2023-01-22T09:06:44.741Z,5.73
2023-01-22T09:10:08.269Z,6.60
2023-01-22T09:13:31.252Z,7.10
2023-01-22T09:16:53.551Z,6.87
2023-01-22T09:20:14.925Z,7.33
2023-01-22T09:23:36.839Z,7.23
2023-01-22T09:26:58.726Z,7.53
2023-01-22T09:30:22.383Z,8.23
2023-01-22T09:33:44.309Z,8.10
2023-01-22T09:37:07.902Z,7.27
2023-01-22T09:40:32.349Z,7.40
2023-01-22T09:43:58.585Z,6.03
2023-01-22T09:47:30.902Z,7.17
2023-01-22T09:50:52.552Z,8.07
2023-01-22T09:54:16.334Z,7.90
2023-01-22T09:57:47.634Z,7.57
2023-01-22T10:01:09.018Z,8.93
2023-01-22T10:04:37.672Z,8.03
2023-01-22T10:08:05.813Z,7.37
2023-01-22T10:11:27.732Z,7.33
2023-01-22T10:14:57.096Z,7.53
2023-01-22T10:18:32.352Z,8.17
2023-01-22T10:22:00.237Z,10.90
2023-01-22T10:25:22.159Z,8.50
2023-01-22T10:28:49.292Z,8.63
2023-01-22T10:32:19.922Z,7.60
2023-01-22T10:35:44.045Z,8.77
2023-01-22T10:39:11.962Z,8.27
2023-01-22T10:42:33.225Z,11.40
2023-01-22T10:45:57.196Z,10.37
2023-01-22T10:49:21.275Z,9.87
2023-01-22T10:52:45.979Z,10.80
2023-01-22T10:56:12.604Z,10.47
2023-01-22T10:59:34.962Z,10.83
2023-01-22T11:02:56.701Z,9.70
2023-01-22T11:06:21.897Z,10.23
2023-01-22T11:09:47.804Z,11.83
2023-01-22T11:13:20.989Z,11.00
2023-01-22T11:16:44.670Z,12.20
2023-01-22T11:20:17.255Z,14.30
2023-01-22T11:23:48.525Z,10.57
2023-01-22T11:27:26.958Z,13.27
2023-01-22T11:31:09.198Z,11.63
2023-01-22T11:34:43.633Z,13.13
2023-01-22T11:38:17.810Z,13.20
2023-01-22T11:41:55.781Z,12.83
2023-01-22T11:45:32.736Z,14.70
2023-01-22T11:49:06.954Z,13.97
2023-01-22T11:52:43.790Z,13.53
2023-01-22T11:56:24.080Z,12.83
2023-01-22T12:00:01.627Z,11.53
2023-01-22T12:03:52.112Z,13.47
2023-01-22T12:07:51.163Z,13.07
2023-01-22T12:11:37.313Z,12.43
2023-01-22T12:15:17.044Z,15.43
2023-01-22T12:18:59.478Z,13.97
2023-01-22T12:22:33.092Z,15.27
2023-01-22T12:26:01.582Z,12.90
2023-01-22T12:29:29.956Z,14.47
2023-01-22T12:32:56.076Z,13.60
2023-01-22T12:36:22.944Z,18.10
2023-01-22T12:39:52.482Z,13.50
2023-01-22T12:43:15.331Z,13.80
2023-01-22T12:46:49.752Z,17.10
2023-01-22T12:50:19.213Z,14.00
2023-01-22T12:53:41.302Z,17.60
2023-01-22T12:57:24.412Z,16.37
2023-01-22T13:00:47.378Z,12.83
2023-01-22T13:04:13.912Z,17.27
2023-01-22T13:07:39.703Z,15.90
2023-01-22T13:11:02.824Z,16.73
2023-01-22T13:14:27.452Z,13.10
2023-01-22T13:18:06.611Z,13.43
2023-01-22T13:21:30.578Z,14.73
2023-01-22T13:24:54.411Z,13.73
2023-01-22T13:28:18.730Z,16.57
2023-01-22T13:31:40.398Z,16.87
2023-01-22T13:35:08.095Z,16.27
2023-01-22T13:38:32.700Z,13.50
2023-01-22T13:41:57.310Z,13.87
2023-01-22T13:45:23.533Z,13.27
2023-01-22T13:48:45.258Z,12.93
2023-01-22T13:52:14.952Z,13.53
2023-01-22T13:55:37.041Z,14.57
2023-01-22T13:59:19.070Z,15.17
2023-01-22T14:02:45.563Z,14.37
2023-01-22T14:06:11.086Z,15.87
2023-01-22T14:09:35.596Z,19.57
2023-01-22T14:13:01.663Z,15.03
2023-01-22T14:16:24.179Z,16.27
2023-01-22T14:19:45.478Z,14.87
2023-01-22T14:23:07.639Z,18.67
2023-01-22T14:26:30.500Z,16.50
2023-01-22T14:29:55.779Z,13.67
2023-01-22T14:33:23.826Z,19.27
2023-01-22T14:36:48.219Z,15.07
2023-01-22T14:40:11.814Z,16.60
2023-01-22T14:43:35.873Z,16.10
2023-01-22T14:46:57.449Z,17.63
2023-01-22T14:50:19.803Z,16.80
2023-01-22T14:53:41.748Z,13.93
2023-01-22T14:57:04.191Z,15.27
2023-01-22T15:00:28.668Z,16.63
2023-01-22T15:03:50.601Z,14.27
2023-01-22T15:07:13.116Z,15.80
2023-01-22T15:10:34.654Z,15.10
2023-01-22T15:13:56.530Z,15.27
2023-01-22T15:17:21.296Z,15.73
2023-01-22T15:20:43.154Z,16.83
2023-01-22T15:24:05.049Z,14.77
2023-01-22T15:27:26.635Z,13.97
2023-01-22T15:30:50.795Z,17.87
2023-01-22T15:34:13.989Z,14.30
2023-01-22T15:37:35.577Z,16.00
2023-01-22T15:41:04.993Z,15.63
2023-01-22T15:44:26.629Z,17.10
2023-01-22T15:47:48.959Z,13.57
2023-01-22T15:51:13.856Z,13.83
2023-01-22T15:54:35.626Z,16.17
2023-01-22T15:57:59.824Z,14.67
2023-01-22T16:01:23.957Z,14.63
2023-01-22T16:04:45.446Z,17.23
2023-01-22T16:08:08.198Z,16.97
2023-01-22T16:11:31.226Z,14.70
2023-01-22T16:14:52.567Z,17.73
2023-01-22T16:18:14.248Z,16.40
2023-01-22T16:21:36.210Z,16.37
2023-01-22T16:24:58.938Z,15.80
2023-01-22T16:28:20.237Z,14.70
2023-01-22T16:31:42.096Z,15.67
2023-01-22T16:35:04.303Z,13.83
2023-01-22T16:38:25.907Z,13.47
2023-01-22T16:41:50.421Z,15.33
2023-01-22T16:45:12.036Z,13.87
2023-01-22T16:48:33.994Z,14.83
2023-01-22T16:51:57.979Z,14.00
2023-01-22T16:55:19.800Z,14.40
2023-01-22T16:58:43.262Z,14.77
2023-01-22T17:02:09.053Z,13.50
2023-01-22T17:05:30.786Z,14.80
2023-01-22T17:08:53.043Z,13.90
2023-01-22T17:12:14.758Z,13.50
2023-01-22T17:15:39.931Z,15.77
2023-01-22T17:19:03.134Z,16.43
2023-01-22T17:22:25.346Z,15.13
2023-01-22T17:25:47.958Z,17.27
2023-01-22T17:29:09.918Z,15.03
2023-01-22T17:32:32.999Z,16.27
2023-01-22T17:35:59.305Z,17.30
2023-01-22T17:39:21.316Z,17.70
2023-01-22T17:42:42.694Z,21.57
2023-01-22T17:46:08.972Z,20.40
2023-01-22T17:49:34.941Z,18.03
2023-01-22T17:52:57.117Z,20.67
2023-01-22T17:56:20.688Z,25.60
2023-01-22T17:59:42.195Z,20.60
2023-01-22T18:03:04.208Z,23.07
2023-01-22T18:06:27.610Z,21.40
2023-01-22T18:09:49.219Z,19.53
2023-01-22T18:13:11.136Z,20.00
2023-01-22T18:16:38.365Z,19.70
2023-01-22T18:19:59.994Z,17.17
2023-01-22T18:23:23.401Z,20.80
2023-01-22T18:26:45.321Z,22.63
2023-01-22T18:30:08.629Z,18.43
2023-01-22T18:33:30.637Z,23.70
2023-01-22T18:36:52.579Z,18.93
2023-01-22T18:40:16.679Z,21.97
2023-01-22T18:43:39.011Z,18.70
2023-01-22T18:47:01.795Z,21.10
2023-01-22T18:50:23.683Z,18.77
2023-01-22T18:53:45.561Z,18.77
2023-01-22T18:57:08.208Z,20.47
2023-01-22T19:00:30.171Z,14.30
2023-01-22T19:03:53.961Z,18.20
2023-01-22T19:07:15.453Z,18.73
2023-01-22T19:10:37.129Z,20.53
2023-01-22T19:14:00.918Z,17.57
2023-01-22T19:17:22.391Z,16.83
2023-01-22T19:20:44.058Z,18.30
2023-01-22T19:24:06.434Z,18.63
2023-01-22T19:27:29.740Z,16.93
2023-01-22T19:30:53.086Z,19.13
2023-01-22T19:34:23.128Z,15.37
2023-01-22T19:37:45.008Z,17.93
2023-01-22T19:41:08.660Z,17.33
2023-01-22T19:44:30.572Z,17.17
2023-01-22T19:47:55.500Z,17.47
2023-01-22T19:51:18.942Z,15.23
2023-01-22T19:54:47.200Z,15.53
2023-01-22T19:58:08.823Z,17.17
2023-01-22T20:01:31.110Z,16.37
2023-01-22T20:04:54.413Z,15.10
2023-01-22T20:08:16.810Z,17.67
2023-01-22T20:11:38.802Z,19.50
2023-01-22T20:15:00.621Z,19.17
2023-01-22T20:18:22.766Z,18.87
2023-01-22T20:21:45.621Z,16.33
2023-01-22T20:25:09.149Z,18.13
2023-01-22T20:28:30.692Z,18.13
2023-01-22T20:31:53.321Z,20.70
2023-01-22T20:35:16.230Z,19.10
2023-01-22T20:38:39.491Z,16.70
2023-01-22T20:42:01.145Z,17.70
2023-01-22T20:45:23.084Z,15.63
2023-01-22T20:48:45.460Z,17.37
2023-01-22T20:52:07.250Z,17.57
2023-01-22T20:55:30.172Z,19.30
2023-01-22T20:58:57.162Z,17.07
2023-01-22T21:02:18.785Z,21.40
2023-01-22T21:05:41.421Z,19.23
2023-01-22T21:09:03.680Z,18.90
2023-01-22T21:12:27.289Z,17.43
2023-01-22T21:15:49.078Z,19.13
2023-01-22T21:19:15.805Z,16.87
2023-01-22T21:22:37.271Z,18.00
2023-01-22T21:26:04.770Z,17.87
2023-01-22T21:29:27.886Z,18.23
2023-01-22T21:32:51.639Z,17.80
2023-01-22T21:36:16.377Z,17.60
2023-01-22T21:39:44.928Z,16.97
2023-01-22T21:43:24.058Z,19.23
2023-01-22T21:46:48.153Z,18.20
2023-01-22T21:50:11.383Z,16.27
2023-01-22T21:53:33.071Z,18.83
2023-01-22T21:56:54.671Z,19.13
2023-01-22T22:00:17.151Z,18.13
2023-01-22T22:03:40.583Z,15.00
2023-01-22T22:07:02.250Z,19.07
2023-01-22T22:10:23.645Z,15.27
2023-01-22T22:13:45.523Z,17.23
2023-01-22T22:17:08.342Z,15.73
2023-01-22T22:20:33.643Z,16.00
2023-01-22T22:23:57.536Z,16.37
2023-01-22T22:27:19.147Z,16.50
2023-01-22T22:30:40.941Z,20.63
2023-01-22T22:34:02.738Z,17.23
2023-01-22T22:37:25.703Z,16.43
2023-01-22T22:40:58.933Z,16.13
2023-01-22T22:44:20.510Z,15.97
2023-01-22T22:47:42.308Z,17.50
2023-01-22T22:51:11.410Z,15.73
2023-01-22T22:54:34.481Z,16.87
2023-01-22T22:57:56.291Z,16.63
2023-01-22T23:01:19.306Z,17.50
2023-01-22T23:04:40.854Z,20.37
2023-01-22T23:08:02.683Z,18.80
2023-01-22T23:11:28.214Z,19.67
2023-01-22T23:14:49.655Z,14.63
2023-01-22T23:18:11.541Z,18.50
2023-01-22T23:21:35.057Z,20.80
2023-01-22T23:24:56.655Z,15.23
2023-01-22T23:28:19.362Z,18.33
2023-01-22T23:31:41.859Z,17.30
2023-01-22T23:35:03.732Z,17.23
2023-01-22T23:38:25.419Z,17.17
2023-01-22T23:41:47.404Z,18.90
2023-01-22T23:45:11.951Z,17.57
2023-01-22T23:48:33.696Z,18.37
2023-01-22T23:51:55.636Z,17.23
2023-01-22T23:55:18.085Z,18.07
2023-01-22T23:58:40.640Z,16.43
